createdAt,value
2018-11-07T00:01:08.719Z,92.10
2018-11-07T00:03:39.592Z,92.20
2018-11-07T00:06:10.390Z,92.30
2018-11-07T00:08:41.461Z,92.80
2018-11-07T00:11:12.774Z,92.30
2018-11-07T00:13:43.664Z,92.30
2018-11-07T00:16:14.813Z,92.20
2018-11-07T00:18:45.966Z,92.30
2018-11-07T00:21:16.898Z,92.80
2018-11-07T00:23:48.162Z,92.30
2018-11-07T00:26:19.362Z,92.30
2018-11-07T00:28:50.210Z,92.50
2018-11-07T00:31:21.130Z,92.30
2018-11-07T00:33:52.091Z,92.30
2018-11-07T00:36:22.973Z,92.60
2018-11-07T00:38:53.777Z,92.80
2018-11-07T00:41:24.658Z,93.10
2018-11-07T00:43:55.509Z,92.90
2018-11-07T00:46:26.242Z,92.90
2018-11-07T00:48:57.091Z,92.80
2018-11-07T00:51:28.515Z,92.80
2018-11-07T00:53:59.441Z,92.70
2018-11-07T00:56:30.113Z,92.50
2018-11-07T00:59:00.923Z,92.70
2018-11-07T01:01:31.981Z,92.60
2018-11-07T01:04:03.081Z,92.80
2018-11-07T01:06:34.457Z,92.80
2018-11-07T01:09:07.095Z,92.90
2018-11-07T01:11:37.986Z,93.00
2018-11-07T01:14:09.202Z,92.80
2018-11-07T01:16:40.204Z,92.80
2018-11-07T01:19:11.129Z,92.50
2018-11-07T01:21:42.000Z,92.30
2018-11-07T01:24:12.739Z,92.10
2018-11-07T01:26:43.496Z,91.80
2018-11-07T01:29:14.306Z,91.70
2018-11-07T01:31:45.019Z,91.90
2018-11-07T01:34:15.884Z,92.40
2018-11-07T01:36:46.643Z,92.70
2018-11-07T01:39:17.375Z,92.30
2018-11-07T01:41:48.160Z,91.90
2018-11-07T01:44:18.769Z,92.00
2018-11-07T01:46:49.473Z,92.20
2018-11-07T01:49:20.268Z,92.60
2018-11-07T01:51:51.050Z,92.60
2018-11-07T01:54:21.924Z,92.70
2018-11-07T01:56:52.723Z,92.70
2018-11-07T01:59:23.535Z,92.70
2018-11-07T02:01:54.460Z,92.70
2018-11-07T02:04:25.189Z,92.50
2018-11-07T02:06:55.928Z,92.40
2018-11-07T02:09:26.690Z,92.60
2018-11-07T02:11:57.640Z,92.60
2018-11-07T02:14:29.305Z,92.80
2018-11-07T02:17:00.024Z,92.60
2018-11-07T02:19:30.854Z,92.20
2018-11-07T02:22:01.604Z,92.10
2018-11-07T02:24:32.339Z,92.20
2018-11-07T02:27:03.224Z,92.10
2018-11-07T02:29:34.139Z,92.00
2018-11-07T02:32:05.117Z,92.10
2018-11-07T02:34:35.927Z,92.10
2018-11-07T02:37:06.982Z,92.10
2018-11-07T02:39:37.705Z,92.20
2018-11-07T02:42:08.503Z,92.70
2018-11-07T02:44:39.397Z,92.30
2018-11-07T02:47:10.586Z,92.40
2018-11-07T02:49:41.274Z,91.90
2018-11-07T02:52:12.033Z,92.20
2018-11-07T02:54:42.878Z,92.50
2018-11-07T02:57:13.551Z,92.80
2018-11-07T02:59:44.406Z,92.70
2018-11-07T03:02:15.194Z,92.80
2018-11-07T03:04:46.146Z,92.90
2018-11-07T03:07:17.113Z,92.80
2018-11-07T03:09:47.892Z,92.60
2018-11-07T03:12:19.001Z,92.70
2018-11-07T03:14:49.798Z,93.00
2018-11-07T03:17:20.683Z,93.10
2018-11-07T03:19:51.522Z,92.90
2018-11-07T03:22:22.233Z,92.80
2018-11-07T03:24:53.084Z,92.70
2018-11-07T03:27:24.389Z,92.70
2018-11-07T03:29:55.309Z,92.70
2018-11-07T03:32:26.019Z,92.70
2018-11-07T03:34:57.222Z,93.20
2018-11-07T03:37:28.025Z,92.90
2018-11-07T03:39:59.090Z,92.80
2018-11-07T03:42:29.965Z,92.70
2018-11-07T03:45:00.714Z,92.60
2018-11-07T03:47:31.611Z,92.30
2018-11-07T03:50:02.478Z,92.20
2018-11-07T03:52:33.316Z,92.50
2018-11-07T03:55:04.319Z,92.20
2018-11-07T03:57:35.182Z,92.50
2018-11-07T04:00:08.320Z,92.70
2018-11-07T04:02:39.521Z,92.70
2018-11-07T04:05:11.802Z,92.60
2018-11-07T04:07:43.625Z,92.90
2018-11-07T04:10:14.335Z,92.90
2018-11-07T04:12:45.484Z,93.20
2018-11-07T04:15:16.346Z,93.10
2018-11-07T04:17:47.263Z,92.90
2018-11-07T04:20:18.154Z,92.70
2018-11-07T04:22:49.046Z,92.70
2018-11-07T04:25:20.341Z,93.00
2018-11-07T04:27:51.337Z,93.40
2018-11-07T04:30:22.187Z,93.30
2018-11-07T04:32:53.022Z,93.40
2018-11-07T04:35:23.843Z,93.30
2018-11-07T04:37:54.725Z,93.20
2018-11-07T04:40:26.052Z,93.30
2018-11-07T04:42:57.300Z,93.60
2018-11-07T04:45:28.266Z,93.40
2018-11-07T04:47:59.121Z,93.50
2018-11-07T04:50:30.184Z,93.30
2018-11-07T04:53:01.057Z,92.90
2018-11-07T04:55:32.398Z,92.60
2018-11-07T04:58:03.267Z,92.30
2018-11-07T05:00:34.380Z,92.80
2018-11-07T05:03:05.399Z,92.90
2018-11-07T05:05:36.359Z,92.60
2018-11-07T05:08:07.457Z,92.80
2018-11-07T05:10:38.412Z,93.00
2018-11-07T05:13:09.374Z,93.10
2018-11-07T05:15:40.319Z,93.30
2018-11-07T05:18:11.340Z,93.40
2018-11-07T05:20:42.278Z,93.40
2018-11-07T05:23:13.303Z,93.40
2018-11-07T05:25:44.180Z,93.50
2018-11-07T05:28:15.212Z,93.30
2018-11-07T05:30:46.167Z,93.10
2018-11-07T05:33:17.125Z,93.10
2018-11-07T05:35:48.016Z,93.10
2018-11-07T05:38:18.903Z,92.80
2018-11-07T05:40:49.868Z,92.60
2018-11-07T05:43:20.851Z,92.50
2018-11-07T05:45:52.237Z,92.30
2018-11-07T05:48:23.099Z,92.00
2018-11-07T05:50:54.188Z,91.60
2018-11-07T05:53:25.237Z,91.50
2018-11-07T05:55:56.240Z,91.50
2018-11-07T05:58:27.255Z,91.20
2018-11-07T06:00:58.310Z,91.00
2018-11-07T06:06:00.496Z,90.60
2018-11-07T06:08:32.556Z,89.80
2018-11-07T06:11:04.584Z,90.00
2018-11-07T06:13:36.458Z,89.30
2018-11-07T06:16:08.463Z,88.40
2018-11-07T06:18:40.623Z,87.80
2018-11-07T06:21:12.624Z,87.50
2018-11-07T06:23:44.697Z,87.30
2018-11-07T06:26:16.933Z,87.10
2018-11-07T06:28:49.623Z,85.90
2018-11-07T06:31:21.571Z,85.50
2018-11-07T06:33:54.542Z,85.80
2018-11-07T06:36:26.523Z,84.40
2018-11-07T06:38:58.873Z,83.60
2018-11-07T06:41:30.762Z,82.40
2018-11-07T06:44:03.497Z,81.40
2018-11-07T06:46:35.455Z,80.60
2018-11-07T06:49:07.716Z,79.70
2018-11-07T06:51:39.528Z,78.80
2018-11-07T06:54:11.507Z,79.20
2018-11-07T06:56:43.747Z,77.90
2018-11-07T06:59:15.672Z,76.80
2018-11-07T07:01:48.698Z,77.00
2018-11-07T07:04:20.852Z,75.70
2018-11-07T07:06:52.994Z,74.20
2018-11-07T07:09:24.799Z,74.10
2018-11-07T07:11:57.918Z,74.10
2018-11-07T07:14:30.607Z,73.90
2018-11-07T07:17:02.772Z,72.80
2018-11-07T07:19:35.201Z,72.60
2018-11-07T07:22:07.569Z,71.10
2018-11-07T07:24:39.795Z,71.30
2018-11-07T07:27:11.793Z,70.30
2018-11-07T07:29:44.000Z,68.40
2018-11-07T07:32:16.201Z,68.50
2018-11-07T07:34:48.195Z,67.00
2018-11-07T07:37:20.297Z,66.00
2018-11-07T07:39:52.454Z,65.40
2018-11-07T07:42:24.668Z,64.60
2018-11-07T07:44:56.545Z,63.70
2018-11-07T07:47:28.724Z,63.10
2018-11-07T07:50:00.982Z,62.60
2018-11-07T07:52:33.555Z,62.10
2018-11-07T07:55:06.035Z,61.60
2018-11-07T07:57:38.960Z,61.40
2018-11-07T08:00:17.111Z,60.80
2018-11-07T08:02:52.339Z,60.20
2018-11-07T08:05:24.356Z,60.20
2018-11-07T08:07:56.412Z,59.70
2018-11-07T08:10:28.442Z,59.30
2018-11-07T08:13:00.842Z,58.40
2018-11-07T08:15:32.764Z,58.70
2018-11-07T08:18:04.901Z,58.70
2018-11-07T08:20:36.896Z,58.60
2018-11-07T08:23:09.159Z,58.70
2018-11-07T08:25:41.162Z,59.20
2018-11-07T08:28:13.163Z,58.30
2018-11-07T08:30:46.444Z,57.80
2018-11-07T08:33:18.933Z,56.90
2018-11-07T08:35:51.035Z,56.50
2018-11-07T08:38:23.107Z,56.80
2018-11-07T08:40:55.025Z,57.30
2018-11-07T08:43:27.277Z,57.00
2018-11-07T08:45:59.142Z,57.00
2018-11-07T08:48:31.063Z,56.40
2018-11-07T08:51:03.158Z,56.80
2018-11-07T08:53:35.307Z,57.20
2018-11-07T08:56:07.272Z,57.80
2018-11-07T08:58:39.903Z,58.10
2018-11-07T09:01:12.262Z,57.90
2018-11-07T09:03:44.634Z,57.90
2018-11-07T09:06:16.683Z,58.20
2018-11-07T09:08:49.284Z,58.70
2018-11-07T09:11:22.168Z,58.30
2018-11-07T09:13:54.254Z,58.80
2018-11-07T09:16:26.494Z,58.90
2018-11-07T09:18:59.545Z,58.70
2018-11-07T09:21:31.694Z,59.20
2018-11-07T09:24:03.760Z,58.80
2018-11-07T09:26:35.725Z,57.70
2018-11-07T09:29:07.983Z,57.50
2018-11-07T09:31:40.062Z,57.70
2018-11-07T09:34:12.045Z,56.60
2018-11-07T09:36:45.021Z,56.80
2018-11-07T09:39:17.329Z,57.70
2018-11-07T09:41:49.592Z,57.50
2018-11-07T09:44:21.722Z,58.70
2018-11-07T09:46:53.903Z,58.60
2018-11-07T09:49:27.310Z,59.30
2018-11-07T09:51:59.561Z,59.20
2018-11-07T09:54:32.548Z,60.00
2018-11-07T09:57:04.568Z,59.80
2018-11-07T09:59:37.836Z,59.60
2018-11-07T10:02:09.929Z,59.50
2018-11-07T10:04:42.037Z,58.70
2018-11-07T10:07:13.837Z,59.00
2018-11-07T10:09:46.170Z,59.20
2018-11-07T10:12:18.266Z,57.90
2018-11-07T10:14:50.451Z,57.50
2018-11-07T10:17:22.201Z,57.00
2018-11-07T10:19:54.526Z,57.80
2018-11-07T10:22:27.980Z,58.40
2018-11-07T10:25:00.572Z,58.50
2018-11-07T10:27:33.025Z,58.70
2018-11-07T10:30:06.519Z,58.80
2018-11-07T10:32:38.061Z,58.50
2018-11-07T10:35:11.049Z,58.50
2018-11-07T10:37:43.403Z,58.90
2018-11-07T10:40:18.351Z,59.30
2018-11-07T10:42:50.388Z,58.50
2018-11-07T10:45:23.217Z,59.00
2018-11-07T10:47:55.680Z,59.50
2018-11-07T10:50:28.017Z,58.80
2018-11-07T10:52:59.954Z,59.20
2018-11-07T10:55:32.282Z,59.20
2018-11-07T10:58:05.230Z,59.10
2018-11-07T11:00:41.908Z,59.20
2018-11-07T11:03:19.104Z,59.80
2018-11-07T11:05:52.098Z,59.60
2018-11-07T11:08:24.182Z,59.30
2018-11-07T11:10:56.114Z,59.30
2018-11-07T11:13:28.139Z,58.50
2018-11-07T11:16:00.157Z,58.70
2018-11-07T11:18:32.981Z,58.70
2018-11-07T11:21:05.497Z,58.30
2018-11-07T11:23:37.640Z,58.50
2018-11-07T11:26:09.747Z,58.40
2018-11-07T11:28:41.910Z,57.70
2018-11-07T11:31:13.921Z,57.80
2018-11-07T11:33:46.218Z,59.10
2018-11-07T11:36:18.481Z,58.60
2018-11-07T11:38:50.662Z,58.80
2018-11-07T11:41:22.761Z,58.80
2018-11-07T11:43:54.993Z,58.40
2018-11-07T11:46:27.051Z,58.50
2018-11-07T11:48:59.358Z,58.50
2018-11-07T11:51:31.310Z,59.00
2018-11-07T11:54:03.389Z,59.00
2018-11-07T11:56:35.239Z,58.50
2018-11-07T11:59:07.473Z,58.20
2018-11-07T12:01:39.272Z,58.30
2018-11-07T12:04:11.056Z,58.70
2018-11-07T12:06:42.998Z,59.10
2018-11-07T12:09:15.055Z,58.90
2018-11-07T12:11:47.129Z,58.70
2018-11-07T12:14:19.351Z,59.00
2018-11-07T12:16:51.505Z,59.40
2018-11-07T12:19:23.381Z,59.40
2018-11-07T12:21:55.383Z,59.70
2018-11-07T12:24:27.473Z,59.30
2018-11-07T12:27:03.291Z,59.20
2018-11-07T12:29:35.573Z,59.30
2018-11-07T12:32:08.039Z,59.70
2018-11-07T12:34:39.871Z,59.40
2018-11-07T12:37:12.162Z,59.60
2018-11-07T12:39:44.224Z,60.40
2018-11-07T12:42:16.159Z,60.00
2018-11-07T12:44:48.401Z,60.50
2018-11-07T12:47:20.792Z,60.40
2018-11-07T12:49:53.144Z,60.00
2018-11-07T12:52:25.570Z,60.20
2018-11-07T12:54:57.588Z,60.20
2018-11-07T12:57:29.750Z,60.50
2018-11-07T13:00:02.391Z,61.30
2018-11-07T13:02:34.688Z,60.60
2018-11-07T13:05:07.725Z,60.30
2018-11-07T13:07:40.341Z,60.20
2018-11-07T13:10:16.574Z,60.40
2018-11-07T13:12:49.447Z,60.80
2018-11-07T13:15:21.904Z,60.10
2018-11-07T13:17:54.465Z,60.40
2018-11-07T13:20:27.107Z,60.40
2018-11-07T13:22:59.328Z,60.30
2018-11-07T13:25:31.776Z,60.40
2018-11-07T13:28:03.973Z,60.50
2018-11-07T13:30:36.589Z,60.70
2018-11-07T13:33:08.954Z,60.50
2018-11-07T13:35:41.115Z,60.80
2018-11-07T13:38:13.748Z,60.70
2018-11-07T13:40:45.897Z,61.60
2018-11-07T13:43:17.901Z,61.70
2018-11-07T13:45:50.254Z,61.90
2018-11-07T13:48:23.125Z,61.70
2018-11-07T13:50:55.059Z,61.80
2018-11-07T13:53:27.221Z,61.70
2018-11-07T13:55:59.273Z,61.50
2018-11-07T13:58:31.375Z,61.60
2018-11-07T14:01:03.821Z,61.40
2018-11-07T14:03:36.647Z,61.50
2018-11-07T14:06:09.057Z,62.20
2018-11-07T14:08:41.576Z,62.50
2018-11-07T14:11:13.745Z,62.90
2018-11-07T14:13:45.871Z,62.80
2018-11-07T14:16:17.995Z,63.00
2018-11-07T14:18:50.319Z,62.80
2018-11-07T14:21:22.681Z,62.80
2018-11-07T14:23:54.867Z,63.00
2018-11-07T14:26:27.217Z,63.30
2018-11-07T14:29:00.388Z,63.70
2018-11-07T14:31:32.499Z,64.00
2018-11-07T14:34:04.993Z,63.90
2018-11-07T14:36:36.824Z,64.20
2018-11-07T14:39:10.258Z,64.40
2018-11-07T14:41:42.890Z,64.60
2018-11-07T14:44:15.015Z,65.00
2018-11-07T14:46:48.305Z,65.10
2018-11-07T14:49:20.423Z,65.50
2018-11-07T14:51:52.749Z,65.60
2018-11-07T14:54:24.890Z,66.10
2018-11-07T14:56:57.253Z,66.40
2018-11-07T14:59:29.020Z,67.20
2018-11-07T15:02:01.008Z,67.00
2018-11-07T15:04:33.452Z,67.30
2018-11-07T15:07:05.405Z,67.80
2018-11-07T15:09:37.288Z,68.00
2018-11-07T15:12:10.302Z,68.40
2018-11-07T15:14:42.443Z,68.60
2018-11-07T15:17:14.268Z,69.10
2018-11-07T15:19:47.146Z,69.50
2018-11-07T15:22:19.632Z,69.90
2018-11-07T15:24:51.786Z,70.40
2018-11-07T15:27:23.825Z,70.70
2018-11-07T15:29:56.524Z,71.20
2018-11-07T15:32:29.448Z,71.60
2018-11-07T15:35:01.534Z,71.90
2018-11-07T15:37:33.440Z,72.20
2018-11-07T15:40:06.015Z,72.60
2018-11-07T15:42:38.504Z,73.00
2018-11-07T15:45:13.255Z,73.50
2018-11-07T15:47:45.349Z,73.80
2018-11-07T15:50:22.932Z,74.00
2018-11-07T15:52:55.408Z,74.30
2018-11-07T15:55:27.400Z,74.80
2018-11-07T15:57:59.778Z,74.90
2018-11-07T16:00:32.297Z,75.20
2018-11-07T16:03:04.748Z,74.70
2018-11-07T16:05:36.672Z,74.80
2018-11-07T16:08:09.815Z,74.70
2018-11-07T16:10:41.852Z,75.00
2018-11-07T16:13:14.045Z,75.10
2018-11-07T16:15:46.353Z,74.50
2018-11-07T16:18:18.231Z,74.70
2018-11-07T16:20:51.400Z,74.40
2018-11-07T16:23:23.624Z,74.20
2018-11-07T16:25:56.052Z,74.20
2018-11-07T16:28:28.048Z,74.30
2018-11-07T16:30:59.925Z,74.80
2018-11-07T16:33:32.506Z,75.10
2018-11-07T16:36:04.661Z,75.30
2018-11-07T16:38:36.956Z,75.40
2018-11-07T16:41:09.947Z,75.60
2018-11-07T16:43:41.927Z,75.70
2018-11-07T16:46:14.927Z,76.00
2018-11-07T16:48:47.146Z,76.30
2018-11-07T16:51:19.536Z,76.60
2018-11-07T16:53:51.763Z,77.80
2018-11-07T16:56:23.798Z,78.80
2018-11-07T16:58:56.061Z,79.00
2018-11-07T17:01:28.175Z,78.40
2018-11-07T17:04:00.855Z,78.50
2018-11-07T17:06:33.267Z,79.30
2018-11-07T17:09:06.832Z,79.40
2018-11-07T17:11:39.205Z,78.60
2018-11-07T17:14:11.992Z,79.80
2018-11-07T17:16:44.262Z,78.40
2018-11-07T17:19:16.370Z,78.60
2018-11-07T17:21:48.298Z,78.20
2018-11-07T17:24:20.635Z,78.10
2018-11-07T17:26:52.973Z,78.40
2018-11-07T17:29:25.110Z,78.70
2018-11-07T17:31:57.372Z,78.90
2018-11-07T17:34:29.488Z,79.20
2018-11-07T17:37:01.526Z,79.80
2018-11-07T17:39:34.149Z,80.10
2018-11-07T17:42:06.119Z,80.30
2018-11-07T17:44:38.601Z,80.10
2018-11-07T17:47:11.983Z,80.50
2018-11-07T17:49:44.812Z,80.90
2018-11-07T17:52:16.935Z,80.50
2018-11-07T17:54:50.604Z,80.50
2018-11-07T17:57:22.914Z,81.00
2018-11-07T17:59:55.028Z,80.90
2018-11-07T18:02:27.063Z,81.40
2018-11-07T18:04:58.888Z,81.50
2018-11-07T18:07:31.111Z,81.40
2018-11-07T18:10:03.859Z,81.50
2018-11-07T18:12:37.121Z,81.60
2018-11-07T18:15:11.067Z,82.70
2018-11-07T18:17:43.241Z,82.50
2018-11-07T18:20:16.209Z,83.00
2018-11-07T18:22:48.335Z,83.30
2018-11-07T18:25:20.752Z,83.20
2018-11-07T18:27:52.781Z,84.00
2018-11-07T18:30:25.904Z,83.20
2018-11-07T18:32:57.884Z,83.50
2018-11-07T18:35:30.465Z,83.80
2018-11-07T18:40:46.445Z,83.80
2018-11-07T18:43:18.884Z,84.00
2018-11-07T18:45:51.050Z,84.00
2018-11-07T18:48:24.637Z,84.20
2018-11-07T18:50:56.665Z,84.90
2018-11-07T18:53:28.979Z,84.90
2018-11-07T18:56:01.428Z,84.80
2018-11-07T18:58:42.144Z,84.90
2018-11-07T19:01:18.540Z,85.00
2018-11-07T19:03:50.768Z,85.10
2018-11-07T19:06:23.716Z,85.40
2018-11-07T19:08:56.556Z,85.60
2018-11-07T19:11:28.718Z,85.90
2018-11-07T19:14:01.284Z,86.10
2018-11-07T19:16:34.067Z,86.40
2018-11-07T19:19:06.742Z,86.70
2018-11-07T19:21:38.837Z,87.00
2018-11-07T19:24:11.833Z,87.30
2018-11-07T19:26:44.448Z,86.80
2018-11-07T19:29:17.695Z,87.00
2018-11-07T19:31:50.173Z,88.00
2018-11-07T19:34:22.215Z,88.00
2018-11-07T19:36:54.716Z,87.80
2018-11-07T19:39:29.554Z,87.50
2018-11-07T19:42:02.080Z,87.40
2018-11-07T19:44:37.114Z,87.40
2018-11-07T19:47:10.625Z,88.10
2018-11-07T19:49:43.123Z,88.50
2018-11-07T19:52:25.766Z,89.30
2018-11-07T19:55:17.796Z,89.00
2018-11-07T19:58:04.444Z,88.80
2018-11-07T20:00:36.618Z,89.50
2018-11-07T20:03:09.641Z,90.10
2018-11-07T20:05:43.422Z,90.20
2018-11-07T20:08:15.860Z,90.20
2018-11-07T20:10:48.839Z,90.00
2018-11-07T20:13:21.337Z,89.80
2018-11-07T20:15:53.613Z,89.60
2018-11-07T20:18:25.942Z,89.70
2018-11-07T20:20:58.737Z,89.90
2018-11-07T20:23:31.023Z,90.10
2018-11-07T20:26:03.546Z,90.20
2018-11-07T20:29:06.185Z,90.10
2018-11-07T20:31:59.692Z,90.20
2018-11-07T20:34:35.005Z,90.00
2018-11-07T20:37:08.374Z,90.00
2018-11-07T20:42:49.721Z,90.10
2018-11-07T20:45:23.651Z,89.50
2018-11-07T20:47:55.902Z,89.10
2018-11-07T20:50:28.978Z,89.70
2018-11-07T20:53:02.118Z,90.10
2018-11-07T20:55:35.570Z,90.80
2018-11-07T20:58:11.534Z,90.70
2018-11-07T21:00:43.737Z,90.60
2018-11-07T21:03:15.909Z,90.50
2018-11-07T21:05:48.093Z,90.20
2018-11-07T21:08:20.878Z,90.20
2018-11-07T21:10:53.012Z,90.30
2018-11-07T21:13:25.624Z,90.40
2018-11-07T21:15:58.496Z,90.60
2018-11-07T21:18:30.654Z,90.50
2018-11-07T21:21:02.766Z,90.50
2018-11-07T21:23:36.640Z,90.20
2018-11-07T21:26:08.775Z,90.30
2018-11-07T21:28:40.730Z,90.40
2018-11-07T21:31:12.743Z,90.60
2018-11-07T21:33:46.766Z,89.60
2018-11-07T21:36:18.667Z,89.60
2018-11-07T21:38:50.776Z,89.90
2018-11-07T21:41:22.578Z,90.20
2018-11-07T21:43:54.825Z,90.20
2018-11-07T21:46:26.997Z,90.10
2018-11-07T21:48:59.091Z,90.40
2018-11-07T21:51:30.887Z,90.50
2018-11-07T21:54:02.975Z,90.50
2018-11-07T21:56:35.977Z,90.80
2018-11-07T21:59:09.265Z,90.80
2018-11-07T22:01:41.679Z,90.60
2018-11-07T22:04:14.426Z,90.50
2018-11-07T22:06:46.936Z,90.60
2018-11-07T22:09:19.199Z,90.70
2018-11-07T22:11:51.405Z,90.70
2018-11-07T22:14:23.803Z,90.60
2018-11-07T22:16:55.815Z,90.60
2018-11-07T22:19:27.731Z,90.60
2018-11-07T22:21:59.794Z,91.00
2018-11-07T22:24:31.820Z,91.30
2018-11-07T22:27:03.802Z,90.80
2018-11-07T22:29:36.288Z,90.70
2018-11-07T22:32:08.232Z,90.60
2018-11-07T22:34:41.180Z,90.70
2018-11-07T22:37:13.183Z,90.80
2018-11-07T22:39:45.146Z,91.10
2018-11-07T22:42:17.370Z,90.90
2018-11-07T22:44:50.132Z,90.60
2018-11-07T22:47:22.591Z,90.70
2018-11-07T22:49:54.736Z,90.90
2018-11-07T22:52:27.428Z,91.10
2018-11-07T22:54:59.684Z,90.90
2018-11-07T22:57:31.602Z,90.90
2018-11-07T23:00:03.566Z,90.50
2018-11-07T23:02:35.803Z,90.70
2018-11-07T23:05:08.372Z,91.20
2018-11-07T23:07:40.366Z,90.70
2018-11-07T23:10:12.850Z,90.80
2018-11-07T23:12:45.182Z,90.90
2018-11-07T23:15:21.979Z,91.10
2018-11-07T23:17:54.464Z,91.10
2018-11-07T23:20:26.590Z,91.10
2018-11-07T23:22:59.367Z,91.00
2018-11-07T23:25:32.130Z,91.10
2018-11-07T23:28:04.205Z,91.20
2018-11-07T23:30:36.723Z,91.10
2018-11-07T23:33:08.753Z,91.00
2018-11-07T23:35:40.798Z,91.10
2018-11-07T23:38:12.727Z,91.00
2018-11-07T23:40:46.127Z,91.00
2018-11-07T23:43:18.104Z,91.00
2018-11-07T23:45:51.056Z,91.10
2018-11-07T23:48:22.798Z,90.70
2018-11-07T23:50:54.740Z,90.60
2018-11-07T23:53:26.575Z,90.70
2018-11-07T23:55:58.513Z,90.80
2018-11-07T23:58:30.611Z,90.80
